Time;durP1;ratioP1;P1;durP2;ratioP2;P2;SDS_P1;SDS_P2;PMS_P1;PMS_P2;Temp;Humidity;BMP_temperature;BMP_pressure;BME280_temperature;BME280_humidity;BME280_pressure;Samples;Min_cycle;Max_cycle;Signal;HPM_P1;HPM_P2
2023/08/05 00:01:34;;;;;;;1.50;1.00;;;17.60;98.20;;;;;;5036220;28;20486;-81
2023/08/05 00:04:01;;;;;;;1.50;0.93;;;17.60;98.20;;;;;;5040711;28;20481;-82
2023/08/05 00:06:28;;;;;;;1.50;1.00;;;17.60;98.20;;;;;;5031478;28;20781;-82
2023/08/05 00:08:56;;;;;;;1.50;1.00;;;17.60;98.20;;;;;;5044628;28;20466;-82
2023/08/05 00:11:23;;;;;;;1.50;0.90;;;17.50;98.20;;;;;;5036254;28;20486;-81
2023/08/05 00:13:49;;;;;;;1.50;1.00;;;17.50;98.20;;;;;;5047576;28;20843;-82
2023/08/05 00:16:17;;;;;;;1.50;0.93;;;17.50;98.20;;;;;;5034068;28;20475;-82
2023/08/05 00:18:44;;;;;;;1.50;1.00;;;17.50;98.20;;;;;;5044711;28;20462;-81
2023/08/05 00:21:10;;;;;;;1.50;0.90;;;17.50;98.20;;;;;;5033623;28;20486;-81
2023/08/05 00:23:39;;;;;;;1.50;1.00;;;17.50;98.20;;;;;;5042761;28;20478;-81
2023/08/05 00:26:07;;;;;;;1.50;0.90;;;17.40;98.20;;;;;;5035649;28;20486;-81
2023/08/05 00:28:34;;;;;;;1.50;0.90;;;17.40;98.20;;;;;;5046478;28;20953;-81
2023/08/05 00:31:00;;;;;;;1.50;1.00;;;17.40;98.20;;;;;;5027287;28;20483;-81
2023/08/05 00:33:27;;;;;;;1.50;1.00;;;17.40;98.20;;;;;;5043969;28;20482;-81
2023/08/05 00:35:54;;;;;;;1.50;0.90;;;17.40;98.20;;;;;;5036527;28;20526;-81
2023/08/05 00:38:21;;;;;;;1.50;1.10;;;17.40;98.20;;;;;;5046426;28;20455;-81
2023/08/05 00:40:47;;;;;;;1.50;1.00;;;17.40;98.20;;;;;;5045734;28;20458;-82
2023/08/05 00:43:16;;;;;;;1.53;1.00;;;17.30;98.20;;;;;;5045746;28;20470;-81
2023/08/05 00:45:43;;;;;;;1.57;1.00;;;17.30;98.20;;;;;;5048638;28;20734;-81
2023/08/05 00:48:10;;;;;;;1.50;1.00;;;17.30;98.20;;;;;;5035278;28;20479;-80
2023/08/05 00:50:37;;;;;;;1.50;1.00;;;17.30;98.20;;;;;;5048259;28;20573;-82
2023/08/05 00:53:03;;;;;;;1.50;0.90;;;17.30;98.20;;;;;;5034744;28;20490;-80
2023/08/05 00:55:31;;;;;;;1.50;1.00;;;17.30;98.20;;;;;;5047955;28;20463;-81
2023/08/05 00:57:58;;;;;;;1.50;1.00;;;17.30;98.20;;;;;;5035395;28;20486;-82
2023/08/05 01:00:26;;;;;;;1.50;1.00;;;17.20;98.20;;;;;;5047409;28;20470;-81
2023/08/05 01:02:53;;;;;;;1.50;0.90;;;17.20;98.20;;;;;;5029904;28;20478;-82
2023/08/05 01:05:21;;;;;;;1.53;1.00;;;17.20;98.20;;;;;;5043698;28;20489;-81
2023/08/05 01:07:48;;;;;;;1.53;1.00;;;17.20;98.20;;;;;;5035492;28;20485;-81
2023/08/05 01:10:15;;;;;;;1.57;1.00;;;17.20;98.20;;;;;;5047595;28;20465;-83
2023/08/05 01:12:42;;;;;;;1.53;1.00;;;17.20;98.20;;;;;;5036158;28;20486;-81
2023/08/05 01:15:09;;;;;;;1.50;0.97;;;17.20;98.20;;;;;;5047159;28;20532;-82
2023/08/05 01:17:38;;;;;;;1.50;1.00;;;17.10;98.20;;;;;;5037642;28;20493;-82
2023/08/05 01:20:06;;;;;;;1.53;1.00;;;17.10;98.20;;;;;;5048525;28;20500;-81
2023/08/05 01:22:41;;;;;;;1.57;1.00;;;17.10;98.20;;;;;;5035726;28;20745;-82
2023/08/05 01:25:29;;;;;;;1.50;1.00;;;17.00;98.20;;;;;;5047112;28;20889;-81
2023/08/05 01:27:57;;;;;;;1.50;0.90;;;17.00;98.20;;;;;;5036001;28;21030;-82
2023/08/05 01:30:26;;;;;;;1.53;1.10;;;16.90;98.20;;;;;;5049499;28;20454;-81
2023/08/05 01:32:53;;;;;;;1.50;1.00;;;16.90;98.20;;;;;;5048248;22;20721;-76
2023/08/05 01:35:22;;;;;;;1.50;1.00;;;16.90;98.20;;;;;;5027190;28;20527;-78
2023/08/05 01:37:49;;;;;;;1.50;1.00;;;16.80;98.20;;;;;;5009630;28;20483;-76
2023/08/05 01:40:16;;;;;;;1.50;1.00;;;16.80;98.20;;;;;;5024963;28;20469;-78
2023/08/05 01:42:44;;;;;;;1.50;0.90;;;16.80;98.20;;;;;;5020980;28;20489;-76
2023/08/05 01:45:11;;;;;;;1.50;1.00;;;16.70;98.20;;;;;;5039714;28;20470;-77
2023/08/05 01:47:38;;;;;;;1.50;1.00;;;16.70;98.20;;;;;;5035065;28;20577;-79
2023/08/05 01:50:06;;;;;;;1.50;1.00;;;16.70;98.20;;;;;;5047114;28;20458;-77
2023/08/05 01:52:33;;;;;;;1.50;1.00;;;16.70;98.20;;;;;;5040270;28;20524;-77
2023/08/05 01:55:00;;;;;;;1.50;1.00;;;16.70;98.20;;;;;;5043792;28;20458;-77
2023/08/05 01:57:27;;;;;;;1.50;1.00;;;16.70;98.20;;;;;;5040477;28;20482;-77
2023/08/05 01:59:55;;;;;;;1.53;1.10;;;16.70;98.20;;;;;;5048506;28;20468;-77
2023/08/05 02:02:22;;;;;;;1.50;1.00;;;16.60;98.20;;;;;;5034760;28;20484;-77
2023/08/05 02:04:49;;;;;;;1.50;1.07;;;16.60;98.20;;;;;;5047714;28;20459;-77
2023/08/05 02:07:16;;;;;;;1.53;1.00;;;16.60;98.20;;;;;;5033786;28;20500;-77
2023/08/05 02:09:43;;;;;;;1.57;1.00;;;16.60;98.20;;;;;;5048216;28;20469;-78
2023/08/05 02:12:10;;;;;;;1.50;1.00;;;16.50;98.20;;;;;;5033060;28;20560;-77
2023/08/05 02:14:37;;;;;;;1.53;0.97;;;16.50;98.20;;;;;;5049683;28;20478;-78
2023/08/05 02:17:05;;;;;;;1.57;1.00;;;16.50;98.20;;;;;;5033046;28;20482;-79
2023/08/05 02:19:32;;;;;;;1.50;1.00;;;16.40;98.20;;;;;;5044738;28;20546;-77
2023/08/05 02:21:59;;;;;;;1.60;1.00;;;16.30;98.20;;;;;;5036335;28;20488;-77
2023/08/05 02:24:26;;;;;;;1.53;1.00;;;16.30;98.20;;;;;;5047504;28;20493;-78
2023/08/05 02:26:53;;;;;;;1.57;1.10;;;16.30;98.20;;;;;;5038222;28;20481;-78
2023/08/05 02:29:20;;;;;;;1.50;1.00;;;16.20;98.20;;;;;;5045428;28;20853;-79
2023/08/05 02:31:47;;;;;;;1.53;1.00;;;16.20;98.20;;;;;;5041283;28;20594;-79
2023/08/05 02:34:15;;;;;;;1.53;1.00;;;16.10;98.20;;;;;;5048866;28;20862;-76
2023/08/05 02:36:42;;;;;;;1.57;1.00;;;16.10;98.20;;;;;;5040231;28;20886;-78
2023/08/05 02:39:08;;;;;;;1.50;1.00;;;16.00;98.20;;;;;;5046807;28;20462;-78
2023/08/05 02:41:35;;;;;;;1.53;1.00;;;16.00;98.20;;;;;;5039665;28;20528;-78
2023/08/05 02:44:02;;;;;;;1.50;1.00;;;16.00;98.20;;;;;;5049043;28;20486;-78
2023/08/05 02:46:29;;;;;;;1.57;1.00;;;15.90;98.20;;;;;;5039224;28;20557;-78
2023/08/05 02:48:56;;;;;;;1.57;1.00;;;15.90;98.20;;;;;;5049075;28;20973;-79
2023/08/05 02:51:24;;;;;;;1.60;1.13;;;15.90;98.20;;;;;;5040166;28;20489;-78
2023/08/05 02:53:51;;;;;;;1.57;1.00;;;15.80;98.20;;;;;;5049136;28;20489;-77
2023/08/05 02:56:18;;;;;;;1.53;1.00;;;15.80;98.20;;;;;;5039098;28;20470;-79
2023/08/05 02:58:44;;;;;;;1.57;1.00;;;15.80;98.20;;;;;;5048848;28;20454;-77
2023/08/05 03:01:12;;;;;;;1.50;1.00;;;15.70;98.20;;;;;;5038967;28;21018;-77
2023/08/05 03:03:39;;;;;;;1.57;1.07;;;15.70;98.20;;;;;;5044869;28;20493;-77
2023/08/05 03:06:06;;;;;;;1.50;1.00;;;15.70;98.20;;;;;;5039982;28;20456;-77
2023/08/05 03:08:34;;;;;;;1.60;1.00;;;15.70;98.20;;;;;;5049572;28;20528;-79
2023/08/05 03:11:01;;;;;;;1.53;1.00;;;15.70;98.20;;;;;;5037436;28;20458;-79
2023/08/05 03:13:28;;;;;;;1.53;1.00;;;15.70;98.20;;;;;;5050008;28;20525;-78
2023/08/05 03:15:55;;;;;;;1.50;1.00;;;15.70;98.20;;;;;;5039408;28;20501;-77
2023/08/05 03:18:22;;;;;;;1.53;1.00;;;15.70;98.20;;;;;;5043993;28;20466;-77
2023/08/05 03:20:49;;;;;;;1.53;1.00;;;15.70;98.20;;;;;;5040808;28;20477;-78
2023/08/05 03:23:16;;;;;;;1.57;1.00;;;15.70;98.20;;;;;;5047032;28;20572;-79
2023/08/05 03:25:44;;;;;;;1.80;1.37;;;15.70;98.20;;;;;;5049663;28;20468;-78
2023/08/05 03:28:11;;;;;;;1.70;1.27;;;15.70;98.20;;;;;;5033267;28;20497;-77
2023/08/05 03:30:37;;;;;;;1.53;1.00;;;15.70;98.20;;;;;;5049984;28;20485;-78
2023/08/05 03:33:04;;;;;;;1.53;1.00;;;15.70;98.20;;;;;;5037371;28;21102;-78
2023/08/05 03:35:31;;;;;;;1.57;1.00;;;15.70;98.20;;;;;;5049779;28;20463;-77
2023/08/05 03:37:58;;;;;;;1.60;1.10;;;15.70;98.20;;;;;;5038387;28;20492;-79
2023/08/05 03:40:25;;;;;;;1.57;1.00;;;15.70;98.20;;;;;;5050037;28;20749;-77
2023/08/05 03:42:53;;;;;;;1.53;1.00;;;15.60;98.20;;;;;;5033816;28;20974;-77
2023/08/05 03:45:20;;;;;;;1.57;1.00;;;15.60;98.20;;;;;;5049227;28;20473;-77
2023/08/05 03:47:49;;;;;;;1.53;1.10;;;15.60;98.20;;;;;;5037874;28;20516;-77
2023/08/05 03:50:16;;;;;;;1.53;1.00;;;15.50;98.20;;;;;;5044869;28;20486;-77
2023/08/05 03:52:43;;;;;;;1.57;1.10;;;15.60;98.20;;;;;;5033789;28;20485;-78
2023/08/05 03:55:10;;;;;;;1.53;1.00;;;15.60;98.20;;;;;;5045146;28;20969;-77
2023/08/05 03:57:37;;;;;;;1.57;1.00;;;15.60;98.20;;;;;;5031440;28;20949;-77
2023/08/05 04:00:08;;;;;;;1.50;1.00;;;15.60;98.20;;;;;;5050123;28;20458;-78
2023/08/05 04:02:36;;;;;;;1.53;1.00;;;15.60;98.20;;;;;;5038014;28;20875;-80
2023/08/05 04:05:03;;;;;;;1.53;1.07;;;15.60;98.20;;;;;;5049343;28;20462;-80
2023/08/05 04:07:30;;;;;;;1.50;0.90;;;15.60;98.20;;;;;;5042223;28;20486;-81
2023/08/05 04:09:57;;;;;;;1.50;1.10;;;15.60;98.20;;;;;;5052709;28;20462;-79
2023/08/05 04:12:25;;;;;;;1.60;1.10;;;15.60;98.20;;;;;;5041731;28;20547;-79
2023/08/05 04:14:53;;;;;;;1.53;1.10;;;15.60;98.20;;;;;;5051356;28;20466;-80
2023/08/05 04:17:21;;;;;;;1.57;1.00;;;15.60;98.20;;;;;;5041738;28;20474;-80
2023/08/05 04:20:11;;;;;;;1.53;1.00;;;15.60;98.20;;;;;;5052058;28;20465;-77
2023/08/05 04:22:39;;;;;;;1.60;1.10;;;15.50;98.20;;;;;;5043021;28;20891;-78
2023/08/05 04:25:07;;;;;;;1.60;1.03;;;15.50;98.20;;;;;;5049800;28;20462;-78
2023/08/05 04:27:34;;;;;;;1.53;1.00;;;15.50;98.20;;;;;;5039592;28;20496;-77
2023/08/05 04:30:02;;;;;;;1.57;1.10;;;15.50;98.20;;;;;;5051875;28;20458;-78
2023/08/05 04:32:30;;;;;;;1.50;0.90;;;15.50;98.20;;;;;;5032699;28;20565;-78
2023/08/05 04:34:56;;;;;;;1.50;1.00;;;15.50;98.20;;;;;;5048960;28;21284;-79
2023/08/05 04:37:23;;;;;;;1.53;1.00;;;15.60;98.20;;;;;;5039205;28;21024;-78
2023/08/05 04:39:50;;;;;;;1.50;1.00;;;15.60;98.20;;;;;;5052566;28;20459;-78
2023/08/05 04:42:18;;;;;;;1.50;0.93;;;15.60;98.20;;;;;;5039581;28;20485;-78
2023/08/05 04:44:45;;;;;;;1.50;1.00;;;15.60;98.20;;;;;;5050186;28;20462;-78
2023/08/05 04:47:12;;;;;;;1.50;1.10;;;15.70;98.20;;;;;;5039143;28;20474;-78
2023/08/05 04:49:43;;;;;;;1.53;1.00;;;15.70;98.20;;;;;;5049922;28;20486;-78
2023/08/05 04:52:12;;;;;;;1.57;1.00;;;15.70;98.20;;;;;;5039341;28;20490;-78
2023/08/05 04:54:40;;;;;;;1.53;1.00;;;15.80;98.20;;;;;;5044473;28;20506;-77
2023/08/05 04:57:07;;;;;;;1.50;1.00;;;15.80;98.20;;;;;;5036523;28;20479;-78
2023/08/05 04:59:34;;;;;;;1.53;1.00;;;15.80;98.20;;;;;;5050025;28;20462;-78
2023/08/05 05:02:01;;;;;;;1.57;1.00;;;15.80;98.20;;;;;;5033178;28;20793;-79
2023/08/05 05:04:28;;;;;;;1.53;1.10;;;15.90;98.20;;;;;;5044539;28;20474;-79
2023/08/05 05:06:56;;;;;;;1.50;1.10;;;15.90;98.20;;;;;;5037842;28;20569;-78
2023/08/05 05:09:23;;;;;;;1.50;0.90;;;15.90;98.20;;;;;;5047916;28;20951;-79
2023/08/05 05:11:50;;;;;;;1.57;1.00;;;16.00;98.20;;;;;;5039266;28;21020;-79
2023/08/05 05:14:17;;;;;;;1.50;1.00;;;16.00;98.20;;;;;;5048193;28;20612;-78
2023/08/05 05:16:43;;;;;;;1.53;1.00;;;16.10;98.20;;;;;;5039400;28;20573;-79
2023/08/05 05:19:10;;;;;;;1.57;1.00;;;16.20;98.20;;;;;;5046202;28;20472;-79
2023/08/05 05:21:38;;;;;;;1.50;1.00;;;16.20;98.20;;;;;;5030278;28;20479;-79
2023/08/05 05:24:07;;;;;;;1.50;0.90;;;16.30;98.20;;;;;;5044428;28;20989;-79
2023/08/05 05:26:34;;;;;;;1.57;1.00;;;16.40;98.20;;;;;;5039794;28;20485;-78
2023/08/05 05:29:01;;;;;;;1.50;1.00;;;16.50;98.20;;;;;;5048823;28;20494;-78
2023/08/05 05:31:28;;;;;;;1.60;1.00;;;16.50;98.20;;;;;;5038814;28;20768;-77
2023/08/05 05:33:55;;;;;;;1.50;1.00;;;16.60;98.20;;;;;;5049064;28;20489;-78
2023/08/05 05:36:22;;;;;;;1.53;1.00;;;16.50;98.20;;;;;;5033941;28;20494;-77
2023/08/05 05:38:49;;;;;;;1.60;1.00;;;16.50;98.20;;;;;;5055338;28;20810;-77
2023/08/05 05:41:17;;;;;;;1.53;1.00;;;16.50;98.20;;;;;;5050945;28;20482;-77
2023/08/05 05:43:44;;;;;;;1.53;1.10;;;16.50;98.20;;;;;;5058773;28;20492;-77
2023/08/05 05:46:13;;;;;;;1.53;1.00;;;16.50;98.20;;;;;;5045929;28;20481;-77
2023/08/05 05:48:40;;;;;;;1.50;0.90;;;16.40;98.20;;;;;;5052957;28;20457;-77
2023/08/05 05:51:07;;;;;;;1.53;1.00;;;16.50;98.20;;;;;;5041153;28;21722;-77
2023/08/05 05:53:34;;;;;;;1.53;1.00;;;16.50;98.20;;;;;;5049660;28;20496;-77
2023/08/05 05:56:01;;;;;;;1.53;0.90;;;16.60;98.20;;;;;;5043974;28;20462;-77
2023/08/05 05:58:29;;;;;;;1.60;1.00;;;16.70;98.20;;;;;;5051770;28;20541;-77
2023/08/05 06:00:57;;;;;;;1.57;1.10;;;16.80;98.20;;;;;;5047445;28;21015;-78
2023/08/05 06:03:23;;;;;;;1.60;1.20;;;16.80;98.20;;;;;;5053562;28;20565;-77
2023/08/05 06:05:51;;;;;;;1.53;1.00;;;16.80;98.20;;;;;;5045122;28;20489;-77
2023/08/05 06:08:18;;;;;;;1.50;0.90;;;16.90;98.20;;;;;;5050388;28;20455;-77
2023/08/05 06:10:45;;;;;;;1.50;1.00;;;17.00;98.20;;;;;;5053494;28;20458;-77
2023/08/05 06:13:12;;;;;;;1.50;0.90;;;17.10;98.20;;;;;;5040709;28;20493;-78
2023/08/05 06:15:43;;;;;;;1.53;1.10;;;17.20;98.20;;;;;;5058834;28;20765;-77
2023/08/05 06:18:10;;;;;;;1.50;1.00;;;17.30;98.20;;;;;;5046402;28;20481;-77
2023/08/05 06:20:38;;;;;;;1.57;0.90;;;17.40;98.20;;;;;;5059001;28;20471;-77
2023/08/05 06:23:06;;;;;;;1.50;1.00;;;17.40;98.20;;;;;;5036962;28;21039;-77
2023/08/05 06:25:33;;;;;;;1.50;1.00;;;17.40;98.20;;;;;;5056352;28;20555;-77
2023/08/05 06:28:00;;;;;;;1.50;1.00;;;17.50;98.20;;;;;;5046153;28;20541;-78
2023/08/05 06:30:27;;;;;;;1.53;1.00;;;17.60;98.20;;;;;;5058849;28;20544;-77
2023/08/05 06:32:56;;;;;;;1.53;1.00;;;17.60;98.20;;;;;;5045626;28;20488;-77
2023/08/05 06:35:22;;;;;;;1.50;0.97;;;17.60;98.20;;;;;;5059675;28;20520;-78
2023/08/05 06:37:49;;;;;;;1.57;1.00;;;17.60;98.20;;;;;;5040895;28;20482;-77
2023/08/05 06:40:16;;;;;;;1.53;1.00;;;17.70;98.20;;;;;;5055596;28;20485;-78
2023/08/05 06:42:44;;;;;;;1.53;1.00;;;17.80;98.20;;;;;;5045801;28;20568;-77
2023/08/05 06:45:11;;;;;;;1.60;1.00;;;17.90;98.20;;;;;;5056834;28;20519;-78
2023/08/05 06:47:38;;;;;;;1.60;1.00;;;18.00;98.20;;;;;;5040517;28;20615;-78
2023/08/05 06:50:08;;;;;;;1.53;1.00;;;18.10;98.20;;;;;;5055930;28;20501;-78
2023/08/05 06:52:36;;;;;;;1.57;1.07;;;18.20;98.20;;;;;;5049704;28;21061;-79
2023/08/05 06:55:04;;;;;;;1.60;1.20;;;18.30;98.20;;;;;;5050777;28;20518;-78
2023/08/05 06:57:31;;;;;;;1.50;0.90;;;18.40;98.20;;;;;;5042508;28;21004;-78
2023/08/05 06:59:58;;;;;;;1.50;0.90;;;18.40;98.20;;;;;;5061603;28;20519;-79
2023/08/05 07:02:25;;;;;;;1.70;1.50;;;18.40;98.20;;;;;;5043077;28;20577;-78
2023/08/05 07:04:53;;;;;;;1.50;0.90;;;18.50;98.20;;;;;;5056898;28;20453;-80
2023/08/05 07:07:21;;;;;;;1.70;1.20;;;18.50;98.20;;;;;;5043194;28;20478;-78
2023/08/05 07:09:48;;;;;;;1.50;0.90;;;18.60;98.20;;;;;;5058466;28;20506;-80
2023/08/05 07:12:16;;;;;;;1.50;0.90;;;18.70;98.20;;;;;;5044296;28;20516;-78
2023/08/05 07:14:44;;;;;;;1.57;0.90;;;18.70;98.20;;;;;;5060257;28;20465;-78
2023/08/05 07:17:12;;;;;;;1.50;0.90;;;18.70;98.20;;;;;;5041850;28;20486;-78
2023/08/05 07:19:38;;;;;;;1.50;0.90;;;18.70;98.20;;;;;;5054023;28;20520;-77
2023/08/05 07:22:06;;;;;;;1.50;0.90;;;18.70;98.20;;;;;;5043677;28;20528;-78
2023/08/05 07:24:34;;;;;;;1.50;0.90;;;18.70;98.20;;;;;;5054519;28;20470;-78
2023/08/05 07:27:01;;;;;;;1.50;0.90;;;18.70;98.20;;;;;;5044777;28;20481;-78
2023/08/05 07:29:28;;;;;;;1.50;0.90;;;18.60;98.20;;;;;;5054420;28;20681;-79
2023/08/05 07:31:55;;;;;;;1.50;0.90;;;18.60;98.20;;;;;;5041128;28;20490;-77
2023/08/05 07:34:25;;;;;;;1.50;0.90;;;18.70;98.20;;;;;;5047536;28;20490;-77
2023/08/05 07:36:52;;;;;;;1.50;0.90;;;18.80;98.20;;;;;;5037171;28;20471;-77
2023/08/05 07:39:19;;;;;;;1.50;0.90;;;18.90;98.20;;;;;;5057992;28;20485;-78
2023/08/05 07:41:49;;;;;;;1.50;0.90;;;19.00;98.20;;;;;;5049909;28;20488;-77
2023/08/05 07:44:16;;;;;;;1.50;0.90;;;19.00;98.20;;;;;;5049913;28;21045;-77
2023/08/05 07:46:45;;;;;;;1.57;0.90;;;19.20;98.20;;;;;;5039778;28;20521;-77
2023/08/05 07:49:12;;;;;;;1.60;1.20;;;19.30;98.20;;;;;;5049120;28;20465;-77
2023/08/05 07:51:40;;;;;;;1.50;0.90;;;19.40;98.20;;;;;;5036714;28;20489;-77
2023/08/05 07:54:07;;;;;;;1.53;0.90;;;19.50;98.20;;;;;;5046378;28;20492;-78
2023/08/05 07:56:35;;;;;;;1.50;0.90;;;19.60;98.20;;;;;;5039016;28;20590;-77
2023/08/05 07:59:03;;;;;;;1.57;0.90;;;19.70;98.20;;;;;;5049111;28;20700;-77
2023/08/05 08:01:33;;;;;;;1.50;0.90;;;19.80;98.20;;;;;;5039607;28;20482;-78
2023/08/05 08:04:02;;;;;;;1.50;0.90;;;20.00;98.20;;;;;;5051894;28;20476;-78
2023/08/05 08:06:32;;;;;;;1.50;1.00;;;20.10;98.20;;;;;;5044627;28;20474;-77
2023/08/05 08:08:58;;;;;;;1.50;0.90;;;20.30;98.20;;;;;;5056377;28;20498;-78
2023/08/05 08:11:26;;;;;;;1.50;0.90;;;20.50;98.20;;;;;;5043802;28;20474;-79
2023/08/05 08:13:53;;;;;;;1.53;0.87;;;20.60;98.20;;;;;;5059823;28;20823;-78
2023/08/05 08:16:22;;;;;;;1.50;0.90;;;20.80;98.20;;;;;;5034417;28;20481;-77
2023/08/05 08:18:49;;;;;;;1.53;0.90;;;20.90;98.20;;;;;;5043508;28;20506;-79
2023/08/05 08:21:16;;;;;;;1.53;0.90;;;21.00;98.20;;;;;;5034328;28;20482;-78
2023/08/05 08:23:43;;;;;;;1.50;0.90;;;21.10;98.20;;;;;;5045382;28;20497;-79
2023/08/05 08:26:14;;;;;;;1.50;0.90;;;21.20;98.20;;;;;;5029258;28;20823;-80
2023/08/05 08:28:41;;;;;;;1.57;0.90;;;21.40;98.20;;;;;;5045785;28;20461;-79
2023/08/05 08:31:08;;;;;;;1.50;1.00;;;21.50;98.20;;;;;;5042986;28;21052;-78
2023/08/05 08:33:36;;;;;;;1.57;0.90;;;21.70;98.20;;;;;;5049943;28;20569;-78
2023/08/05 08:36:04;;;;;;;1.50;0.90;;;21.80;98.20;;;;;;5033615;28;20554;-79
2023/08/05 08:38:31;;;;;;;1.50;0.90;;;21.80;98.20;;;;;;5045149;28;20455;-79
2023/08/05 08:41:02;;;;;;;1.50;0.90;;;21.80;98.20;;;;;;5038414;28;20467;-79
2023/08/05 08:43:29;;;;;;;1.60;1.00;;;22.10;98.20;;;;;;5045705;28;20856;-78
2023/08/05 08:45:56;;;;;;;1.50;0.90;;;22.20;98.20;;;;;;5033841;28;20585;-78
2023/08/05 08:48:25;;;;;;;1.50;0.80;;;22.40;98.20;;;;;;5043649;28;20472;-77
2023/08/05 08:50:55;;;;;;;1.50;0.80;;;22.70;98.20;;;;;;5038703;28;20465;-78
2023/08/05 08:53:22;;;;;;;1.53;0.80;;;22.80;98.20;;;;;;5042263;28;20590;-77
2023/08/05 08:55:49;;;;;;;1.50;0.80;;;22.60;98.20;;;;;;5036152;28;20458;-77
2023/08/05 08:58:17;;;;;;;1.50;0.80;;;22.60;98.20;;;;;;5048394;28;20458;-77
2023/08/05 09:00:44;;;;;;;1.50;0.90;;;22.50;98.20;;;;;;5046666;28;20462;-77
2023/08/05 09:03:15;;;;;;;1.50;0.87;;;22.50;98.20;;;;;;5018004;28;20477;-77
2023/08/05 09:05:44;;;;;;;1.50;0.87;;;22.80;98.20;;;;;;5052827;28;20497;-77
2023/08/05 09:08:15;;;;;;;1.50;0.80;;;23.00;98.20;;;;;;5034752;28;20827;-77
2023/08/05 09:10:45;;;;;;;1.50;0.80;;;23.20;98.00;;;;;;5052859;28;20461;-78
2023/08/05 09:13:16;;;;;;;1.50;0.90;;;23.40;97.20;;;;;;5022621;28;20485;-77
2023/08/05 09:15:43;;;;;;;1.50;0.90;;;23.50;96.00;;;;;;5050246;28;20643;-78
2023/08/05 09:18:10;;;;;;;1.50;0.90;;;23.70;96.90;;;;;;5038184;28;20485;-78
2023/08/05 09:20:38;;;;;;;1.50;0.90;;;23.90;95.70;;;;;;5048914;28;20470;-79
2023/08/05 09:23:07;;;;;;;1.50;0.80;;;24.00;94.80;;;;;;5045712;28;20493;-78
2023/08/05 09:25:41;;;;;;;1.50;0.90;;;24.10;93.30;;;;;;5054358;28;20462;-79
2023/08/05 09:28:09;;;;;;;1.50;0.80;;;24.20;93.60;;;;;;5023364;28;20494;-77
2023/08/05 09:30:36;;;;;;;1.50;0.80;;;24.20;94.30;;;;;;5054455;28;20472;-78
2023/08/05 09:33:03;;;;;;;1.50;0.90;;;24.20;93.20;;;;;;5041977;28;20481;-79
2023/08/05 09:35:30;;;;;;;1.60;1.00;;;24.40;92.20;;;;;;5046525;28;20465;-78
2023/08/05 09:37:57;;;;;;;1.50;0.80;;;24.60;92.60;;;;;;5039330;28;20535;-77
2023/08/05 09:40:28;;;;;;;1.50;0.80;;;24.70;91.80;;;;;;5055511;28;20534;-79
2023/08/05 09:42:59;;;;;;;1.50;0.80;;;24.80;91.90;;;;;;5039766;28;20691;-79
2023/08/05 09:45:28;;;;;;;1.50;0.90;;;24.90;90.90;;;;;;5051551;28;20466;-79
2023/08/05 09:48:03;;;;;;;1.50;0.80;;;25.20;92.20;;;;;;5038619;28;20473;-80
2023/08/05 09:50:31;;;;;;;1.50;0.90;;;25.40;89.80;;;;;;5048987;28;20581;-79
2023/08/05 09:53:00;;;;;;;1.50;0.90;;;25.50;88.10;;;;;;5043003;28;20537;-79
2023/08/05 09:55:28;;;;;;;1.53;1.00;;;25.60;87.50;;;;;;5044903;28;20494;-79
2023/08/05 09:57:57;;;;;;;1.50;0.80;;;25.60;88.50;;;;;;5040636;28;20573;-79
2023/08/05 10:00:57;;;;;;;1.50;1.00;;;25.70;88.90;;;;;;5053813;28;20463;-79
2023/08/05 10:03:26;;;;;;;1.50;0.80;;;25.90;89.20;;;;;;5024049;28;20693;-79
2023/08/05 10:05:55;;;;;;;1.50;0.80;;;26.00;87.20;;;;;;5043427;28;20467;-80
2023/08/05 10:08:24;;;;;;;1.70;1.40;;;25.90;86.70;;;;;;5051197;28;20461;-79
2023/08/05 10:10:51;;;;;;;1.60;1.20;;;25.60;86.90;;;;;;5037748;28;20474;-79
2023/08/05 10:13:21;;;;;;;1.50;0.80;;;25.70;87.10;;;;;;5046142;28;20760;-79
2023/08/05 10:15:51;;;;;;;1.50;0.80;;;25.80;87.60;;;;;;5042252;28;20462;-79
2023/08/05 10:18:19;;;;;;;1.50;0.83;;;25.80;86.00;;;;;;5052790;28;20826;-78
2023/08/05 10:20:52;;;;;;;1.50;0.80;;;25.90;88.30;;;;;;5053875;28;20486;-79
2023/08/05 10:23:25;;;;;;;1.50;0.80;;;26.10;86.40;;;;;;5048273;28;20489;-79
2023/08/05 10:25:59;;;;;;;1.50;0.83;;;26.30;84.90;;;;;;5042833;28;20474;-80
2023/08/05 10:28:44;;;;;;;1.50;0.80;;;26.40;83.70;;;;;;5047770;28;20544;-79
2023/08/05 10:31:25;;;;;;;1.50;0.83;;;26.50;83.60;;;;;;5033079;28;20586;-79
2023/08/05 10:34:13;;;;;;;1.50;0.80;;;26.60;83.50;;;;;;5051367;28;20590;-78
2023/08/05 10:36:49;;;;;;;1.50;0.80;;;26.50;83.30;;;;;;5032736;28;20484;-78
2023/08/05 10:39:41;;;;;;;1.50;0.80;;;26.50;81.80;;;;;;5046321;28;20646;-78
2023/08/05 10:42:19;;;;;;;1.50;0.80;;;26.50;82.10;;;;;;5040015;28;21024;-78
2023/08/05 10:44:50;;;;;;;1.50;0.90;;;26.60;84.60;;;;;;5047332;28;20470;-78
2023/08/05 10:47:21;;;;;;;1.43;0.80;;;26.60;82.80;;;;;;5034925;28;21074;-78
2023/08/05 10:49:48;;;;;;;1.50;0.80;;;26.60;81.20;;;;;;5048205;28;20476;-78
2023/08/05 10:52:17;;;;;;;1.47;0.80;;;26.60;82.60;;;;;;5039862;28;20688;-78
2023/08/05 10:54:44;;;;;;;1.50;0.80;;;26.60;83.40;;;;;;5050088;28;20850;-78
2023/08/05 10:57:47;;;;;;;1.50;0.80;;;26.80;81.40;;;;;;5035582;28;20946;-78
2023/08/05 11:00:23;;;;;;;1.47;0.80;;;27.00;83.10;;;;;;5054883;28;20534;-78
2023/08/05 11:03:10;;;;;;;1.50;0.90;;;27.20;80.90;;;;;;5033066;28;20478;-78
2023/08/05 11:05:37;;;;;;;1.47;0.80;;;27.10;79.00;;;;;;5053887;28;20536;-77
2023/08/05 11:08:05;;;;;;;1.43;0.80;;;26.80;79.10;;;;;;5041980;28;20894;-77
2023/08/05 11:10:32;;;;;;;1.47;0.80;;;26.60;79.90;;;;;;5051480;28;20495;-77
2023/08/05 11:12:59;;;;;;;1.47;0.80;;;26.30;81.30;;;;;;5037186;28;20497;-76
2023/08/05 11:15:28;;;;;;;1.50;0.80;;;26.10;82.50;;;;;;5049518;28;20492;-77
2023/08/05 11:17:55;;;;;;;1.50;0.80;;;25.90;82.90;;;;;;5038755;28;20477;-77
2023/08/05 11:20:31;;;;;;;1.50;0.80;;;25.80;84.60;;;;;;5052220;28;20472;-76
2023/08/05 11:22:58;;;;;;;1.47;0.80;;;25.60;83.40;;;;;;5039507;28;20482;-78
2023/08/05 11:25:26;;;;;;;1.50;0.80;;;25.40;84.10;;;;;;5048858;28;20462;-79
2023/08/05 11:27:54;;;;;;;1.50;0.90;;;25.20;84.70;;;;;;5034639;28;20485;-77
2023/08/05 11:30:21;;;;;;;1.50;0.90;;;25.10;85.10;;;;;;5048339;28;20469;-77
2023/08/05 11:32:55;;;;;;;1.50;0.80;;;24.90;85.20;;;;;;5035870;28;20493;-79
2023/08/05 11:38:45;;;;;;;1.50;0.90;;;24.50;86.50;;;;;;5053192;28;20465;-81
2023/08/05 11:41:12;;;;;;;1.50;0.80;;;24.40;87.10;;;;;;5037137;28;20482;-80
2023/08/05 11:43:41;;;;;;;1.50;0.80;;;24.20;87.40;;;;;;5052116;28;20530;-80
2023/08/05 11:46:08;;;;;;;1.50;0.90;;;24.20;87.90;;;;;;5033472;28;20484;-80
2023/08/05 11:48:37;;;;;;;1.50;0.80;;;24.10;88.90;;;;;;5050762;28;20458;-80
2023/08/05 11:51:05;;;;;;;1.47;0.90;;;24.20;87.90;;;;;;5035828;28;20836;-79
2023/08/05 11:53:32;;;;;;;1.43;0.80;;;24.20;88.70;;;;;;5037205;28;20632;-79
2023/08/05 11:56:06;;;;;;;1.47;0.80;;;24.30;88.60;;;;;;5036160;28;20521;-79
2023/08/05 11:58:34;;;;;;;1.50;0.80;;;24.50;86.60;;;;;;5041048;28;20908;-79
2023/08/05 12:01:04;;;;;;;1.47;0.80;;;24.70;86.50;;;;;;5033933;28;20520;-79
2023/08/05 12:03:32;;;;;;;1.50;0.83;;;24.90;87.90;;;;;;5041125;28;20480;-80
2023/08/05 12:06:03;;;;;;;1.50;0.90;;;25.20;88.30;;;;;;5033238;28;20532;-79
2023/08/05 12:08:38;;;;;;;1.50;0.80;;;25.50;86.50;;;;;;5043700;28;20856;-78
2023/08/05 12:11:05;;;;;;;1.50;0.80;;;25.70;86.10;;;;;;5040158;28;20467;-78
2023/08/05 12:13:33;;;;;;;1.43;0.80;;;25.90;84.90;;;;;;5045029;28;20554;-79
2023/08/05 12:16:01;;;;;;;1.50;0.90;;;26.10;84.60;;;;;;5031873;28;20517;-79
2023/08/05 12:18:35;;;;;;;1.50;0.80;;;26.10;84.60;;;;;;5048006;28;20473;-79
2023/08/05 12:21:05;;;;;;;1.47;0.80;;;26.20;85.50;;;;;;5037777;28;20925;-78
2023/08/05 12:28:43;;;;;;;1.40;0.80;;;26.40;82.70;;;;;;5020990;23;20482;-78
2023/08/05 12:31:18;;;;;;;1.50;0.80;;;26.30;83.30;;;;;;5012776;28;20521;-78
2023/08/05 12:33:46;;;;;;;1.40;0.80;;;26.10;82.70;;;;;;5010970;28;20497;-80
2023/08/05 12:36:15;;;;;;;1.47;0.90;;;26.00;83.40;;;;;;4995099;28;21002;-79
2023/08/05 12:38:52;;;;;;;1.47;0.80;;;25.70;84.70;;;;;;5000961;28;20465;-80
2023/08/05 12:41:29;;;;;;;1.50;0.80;;;25.50;84.10;;;;;;4995632;28;20876;-79
2023/08/05 12:44:06;;;;;;;1.50;0.80;;;25.20;84.70;;;;;;5007772;28;20483;-77
2023/08/05 12:46:33;;;;;;;1.47;0.80;;;24.90;89.00;;;;;;4994542;28;20484;-78
2023/08/05 12:49:01;;;;;;;1.50;0.87;;;24.50;94.00;;;;;;5007616;28;21034;-79
2023/08/05 12:51:39;;;;;;;1.47;0.80;;;23.90;96.80;;;;;;4994361;28;20506;-78
2023/08/05 12:54:07;;;;;;;1.43;0.80;;;23.40;98.20;;;;;;5008288;28;20571;-79
2023/08/05 12:56:34;;;;;;;1.50;0.90;;;23.10;98.20;;;;;;4995629;28;20479;-78
2023/08/05 12:59:02;;;;;;;1.50;0.90;;;22.90;98.20;;;;;;5012314;28;20460;-78
2023/08/05 13:01:30;;;;;;;1.50;0.90;;;22.70;98.20;;;;;;4995680;28;20480;-78
2023/08/05 13:03:57;;;;;;;1.50;0.90;;;22.50;98.20;;;;;;5003984;28;20542;-78